Time;durP1;ratioP1;P1;durP2;ratioP2;P2;SDS_P1;SDS_P2;PMS_P1;PMS_P2;Temp;Humidity;BMP_temperature;BMP_pressure;BME280_temperature;BME280_humidity;BME280_pressure;Samples;Min_cycle;Max_cycle;Signal;HPM_P1;HPM_P2
2023/03/05 00:01:41;;;;;;;0.40;0.40;;;;;;;9.93;100.00;94893.81;5111682;28;20431;-58
2023/03/05 00:04:14;;;;;;;0.50;0.50;;;;;;;9.31;100.00;94836.22;5111981;28;20432;-59
2023/03/05 00:06:42;;;;;;;0.40;0.33;;;;;;;9.32;100.00;94847.59;5112133;28;20432;-59
2023/03/05 00:09:10;;;;;;;0.50;0.50;;;;;;;8.90;100.00;94729.13;5112406;28;20428;-59
2023/03/05 00:11:39;;;;;;;0.87;0.63;;;;;;;9.95;100.00;94865.19;5112351;28;20432;-59
2023/03/05 00:14:07;;;;;;;1.17;0.40;;;;;;;9.92;100.00;94831.34;5111774;28;20575;-59
2023/03/05 00:16:36;;;;;;;0.67;0.67;;;;;;;10.25;100.00;94893.31;5111105;28;20439;-59
2023/03/05 00:19:06;;;;;;;0.60;0.60;;;;;;;9.54;100.00;94829.47;5111025;28;20424;-59
2023/03/05 00:21:37;;;;;;;0.40;0.20;;;;;;;7.25;100.00;94531.53;5111796;28;20467;-59
2023/03/05 00:24:09;;;;;;;0.40;0.30;;;;;;;10.05;100.00;94869.63;5112213;28;20432;-59
2023/03/05 00:26:38;;;;;;;0.40;0.30;;;;;;;10.05;100.00;94865.13;5111301;28;20420;-59
2023/03/05 00:29:10;;;;;;;0.70;0.70;;;;;;;10.19;100.00;94875.91;5112142;28;20791;-59
2023/03/05 00:31:39;;;;;;;0.50;0.30;;;;;;;10.26;100.00;94875.59;5111937;28;20514;-59
2023/03/05 00:34:12;;;;;;;0.77;0.77;;;;;;;8.73;100.00;94675.81;5111500;28;20584;-59
2023/03/05 00:36:42;;;;;;;0.50;0.40;;;;;;;9.24;100.00;94803.19;5110963;28;20522;-58
2023/03/05 00:39:10;;;;;;;0.50;0.33;;;;;;;9.79;100.00;94849.72;5111572;28;20432;-59
2023/03/05 00:41:39;;;;;;;0.40;0.37;;;;;;;9.87;100.00;94878.22;5110676;28;20435;-59
2023/03/05 00:44:08;;;;;;;0.60;0.50;;;;;;;10.04;100.00;94868.81;5111545;28;20502;-59
2023/03/05 00:46:36;;;;;;;0.50;0.50;;;;;;;10.17;100.00;94865.59;5111463;28;20952;-59
2023/03/05 00:49:05;;;;;;;0.40;0.40;;;;;;;10.12;100.00;94862.97;5111535;28;20423;-58
2023/03/05 00:51:35;;;;;;;0.63;0.57;;;;;;;10.23;100.00;94857.59;5111354;28;20518;-58
2023/03/05 00:54:04;;;;;;;0.60;0.50;;;;;;;10.30;100.00;94855.41;5111750;28;20465;-58
2023/03/05 00:56:32;;;;;;;0.40;0.40;;;;;;;10.32;100.00;94858.59;5111715;28;20510;-58
2023/03/05 00:59:01;;;;;;;0.67;0.67;;;;;;;9.91;100.00;94778.69;5111776;28;20499;-58
2023/03/05 01:01:29;;;;;;;0.40;0.40;;;;;;;9.87;100.00;94762.56;5111287;28;20432;-58
2023/03/05 01:03:58;;;;;;;0.30;0.20;;;;;;;10.32;100.00;94843.50;5111681;28;20574;-58
2023/03/05 01:06:28;;;;;;;1.90;1.33;;;;;;;10.10;100.00;94828.00;5113227;28;20488;-58
2023/03/05 01:08:58;;;;;;;0.50;0.50;;;;;;;9.14;100.00;94732.69;5115724;28;20422;-59
2023/03/05 01:11:26;;;;;;;0.40;0.40;;;;;;;9.66;100.00;94766.44;5115796;28;20503;-58
2023/03/05 01:13:55;;;;;;;0.30;0.20;;;;;;;8.82;100.00;94664.44;5115327;28;20491;-59
2023/03/05 01:16:23;;;;;;;0.40;0.33;;;;;;;9.73;100.00;94801.31;5115270;28;20515;-59
2023/03/05 01:18:51;;;;;;;2.40;0.40;;;;;;;5.78;100.00;94164.41;5115263;28;20422;-59
2023/03/05 01:21:20;;;;;;;0.50;0.37;;;;;;;10.03;100.00;94787.84;5113661;28;20471;-59
2023/03/05 01:23:49;;;;;;;0.50;0.27;;;;;;;9.90;100.00;94771.78;5113785;28;20503;-59
2023/03/05 01:26:18;;;;;;;1.93;1.23;;;;;;;10.37;100.00;94816.97;5114368;28;20510;-59
2023/03/05 01:28:47;;;;;;;0.87;0.87;;;;;;;10.00;100.00;94763.75;5115006;28;20419;-59
2023/03/05 01:31:16;;;;;;;0.63;0.63;;;;;;;10.24;100.00;94792.97;5114966;28;20491;-58
2023/03/05 01:33:44;;;;;;;0.40;0.30;;;;;;;10.05;100.00;94767.16;5114895;28;20430;-59
2023/03/05 01:36:15;;;;;;;0.40;0.30;;;;;;;10.10;100.00;94788.28;5115104;28;20492;-58
2023/03/05 01:38:45;;;;;;;0.57;0.30;;;;;;;10.27;100.00;94800.38;5114680;28;20430;-59
2023/03/05 01:41:15;;;;;;;0.40;0.30;;;;;;;9.13;100.00;94604.22;5114135;28;20438;-58
2023/03/05 01:43:46;;;;;;;0.33;0.23;;;;;;;10.41;100.00;94791.47;5113671;28;20451;-58
2023/03/05 01:46:36;;;;;;;0.40;0.30;;;;;;;10.10;100.00;94738.00;5112961;28;21024;-58
2023/03/05 01:49:11;;;;;;;0.80;0.80;;;;;;;10.34;100.00;94767.19;5113279;28;20977;-59
2023/03/05 01:51:45;;;;;;;0.47;0.33;;;;;;;10.24;100.00;94755.91;5114425;28;20427;-59
2023/03/05 01:54:17;;;;;;;0.90;0.40;;;;;;;10.05;100.00;94737.25;5114087;28;20424;-58
2023/03/05 01:56:48;;;;;;;0.40;0.37;;;;;;;10.37;100.00;94773.78;5114289;28;20436;-58
2023/03/05 01:59:19;;;;;;;0.30;0.20;;;;;;;10.42;100.00;94763.94;5113817;28;20518;-59
2023/03/05 02:01:51;;;;;;;0.83;0.83;;;;;;;10.10;100.00;94714.16;5114770;28;20424;-59
2023/03/05 02:04:23;;;;;;;0.40;0.30;;;;;;;9.91;100.00;94784.78;5114696;28;20939;-59
2023/03/05 02:06:52;;;;;;;0.97;0.60;;;;;;;9.60;100.00;94719.91;5114632;28;20440;-58
2023/03/05 02:09:23;;;;;;;0.40;0.33;;;;;;;9.99;100.00;94786.03;5114086;28;20432;-59
2023/03/05 02:11:52;;;;;;;0.60;0.60;;;;;;;9.96;100.00;94760.09;5114738;28;20798;-59
2023/03/05 02:14:23;;;;;;;0.50;0.50;;;;;;;10.31;100.00;94774.91;5114172;28;20434;-59
2023/03/05 02:16:52;;;;;;;0.43;0.40;;;;;;;9.49;100.00;94639.06;5114003;28;20542;-59
2023/03/05 02:19:20;;;;;;;0.47;0.40;;;;;;;10.07;100.00;94756.28;5113814;28;20428;-59
2023/03/05 02:21:50;;;;;;;0.40;0.30;;;;;;;10.09;100.00;94780.66;5114119;28;20478;-58
2023/03/05 02:24:33;;;;;;;0.47;0.40;;;;;;;9.05;100.00;94599.53;5114054;28;20432;-59
2023/03/05 02:27:03;;;;;;;0.40;0.30;;;;;;;10.18;100.00;94776.34;5114423;28;20442;-58
2023/03/05 02:29:33;;;;;;;0.80;0.80;;;;;;;9.16;100.00;94603.66;5113886;28;20432;-58
2023/03/05 02:32:01;;;;;;;1.17;0.50;;;;;;;9.29;100.00;94632.09;5114029;28;20975;-58
2023/03/05 02:34:30;;;;;;;0.70;0.30;;;;;;;10.00;100.00;94785.75;5113898;28;20427;-58
2023/03/05 02:37:01;;;;;;;0.37;0.30;;;;;;;9.68;100.00;94729.91;5113959;28;20826;-58
2023/03/05 02:39:29;;;;;;;0.30;0.20;;;;;;;10.06;100.00;94760.00;5114046;28;20757;-58
2023/03/05 02:41:58;;;;;;;0.90;0.80;;;;;;;10.01;100.00;94730.94;5113798;28;20424;-57
2023/03/05 02:44:26;;;;;;;0.40;0.40;;;;;;;10.20;100.00;94756.47;5113990;28;20515;-58
2023/03/05 02:46:55;;;;;;;0.80;0.30;;;;;;;10.25;100.00;94762.75;5113777;28;20428;-58
2023/03/05 02:49:23;;;;;;;7.73;0.70;;;;;;;9.95;100.00;94785.00;5113967;28;20467;-58
2023/03/05 02:51:51;;;;;;;0.67;0.67;;;;;;;9.56;100.00;94785.03;5113589;28;20436;-58
2023/03/05 02:54:21;;;;;;;0.87;0.50;;;;;;;9.28;100.00;94764.59;5113956;28;20502;-58
2023/03/05 02:56:50;;;;;;;0.93;0.93;;;;;;;9.51;100.00;94774.50;5113474;28;20474;-58
2023/03/05 02:59:18;;;;;;;1.37;1.37;;;;;;;8.78;100.00;94750.56;5113708;28;20428;-59
2023/03/05 03:01:46;;;;;;;0.40;0.40;;;;;;;9.14;100.00;94795.31;5113399;28;20503;-59
2023/03/05 03:04:15;;;;;;;0.50;0.50;;;;;;;8.08;100.00;94653.13;5113396;28;20459;-59
2023/03/05 03:06:43;;;;;;;0.60;0.30;;;;;;;8.94;100.00;94781.16;5113414;28;20459;-59
2023/03/05 03:09:11;;;;;;;1.43;0.40;;;;;;;9.18;100.00;94786.59;5113555;28;20458;-60
2023/03/05 03:11:41;;;;;;;0.73;0.70;;;;;;;8.27;100.00;94601.34;5113374;28;20427;-59
2023/03/05 03:14:09;;;;;;;0.37;0.27;;;;;;;9.13;100.00;94695.94;5113161;28;20518;-59
2023/03/05 03:16:38;;;;;;;0.43;0.30;;;;;;;9.79;100.00;94767.66;5111898;28;20562;-59
2023/03/05 03:19:06;;;;;;;0.80;0.80;;;;;;;9.78;100.00;94727.19;5112591;28;20429;-59
2023/03/05 03:21:34;;;;;;;0.40;0.30;;;;;;;10.20;100.00;94777.66;5112394;28;20475;-59
2023/03/05 03:24:03;;;;;;;0.40;0.30;;;;;;;10.29;100.00;94780.47;5112541;28;20428;-59
2023/03/05 03:26:31;;;;;;;0.40;0.40;;;;;;;10.12;100.00;94780.09;5112865;28;20416;-59
2023/03/05 03:29:01;;;;;;;0.50;0.40;;;;;;;9.59;100.00;94758.81;5112055;28;20427;-59
2023/03/05 03:31:29;;;;;;;0.50;0.30;;;;;;;9.36;100.00;94700.53;5112580;28;20412;-59
2023/03/05 03:33:57;;;;;;;0.50;0.40;;;;;;;9.99;100.00;94775.44;5112849;28;20462;-59
2023/03/05 03:36:26;;;;;;;0.40;0.37;;;;;;;9.72;100.00;94714.25;5111479;28;21069;-59
2023/03/05 03:38:54;;;;;;;0.40;0.30;;;;;;;10.04;100.00;94747.03;5112543;28;20460;-59
2023/03/05 03:41:22;;;;;;;0.60;0.60;;;;;;;9.28;100.00;94693.19;5113135;28;20416;-59
2023/03/05 03:43:50;;;;;;;0.53;0.53;;;;;;;9.62;100.00;94769.91;5112849;28;20420;-59
2023/03/05 03:46:20;;;;;;;0.63;0.63;;;;;;;9.81;100.00;94768.97;5112596;28;20471;-59
2023/03/05 03:48:50;;;;;;;0.30;0.20;;;;;;;9.75;100.00;94753.41;5110798;28;20428;-59
2023/03/05 03:51:18;;;;;;;0.40;0.33;;;;;;;8.55;100.00;94740.63;5111049;28;20443;-59
2023/03/05 03:53:47;;;;;;;1.57;0.50;;;;;;;8.22;100.00;94725.41;5111703;28;20474;-59
2023/03/05 03:56:15;;;;;;;1.40;1.40;;;;;;;8.45;100.00;94775.00;5112144;28;20467;-59
2023/03/05 03:58:44;;;;;;;0.57;0.57;;;;;;;7.97;100.00;94717.56;5112109;28;20533;-59
2023/03/05 04:01:12;;;;;;;5.13;0.83;;;;;;;7.97;100.00;94707.78;5112157;28;20426;-59
2023/03/05 04:03:42;;;;;;;0.80;0.47;;;;;;;8.48;100.00;94774.47;5111830;28;20463;-59
2023/03/05 04:06:11;;;;;;;0.53;0.50;;;;;;;8.95;100.00;94781.97;5112080;28;20488;-59
2023/03/05 04:08:39;;;;;;;0.50;0.40;;;;;;;9.28;100.00;94775.97;5112327;28;20436;-59
2023/03/05 04:11:08;;;;;;;0.50;0.40;;;;;;;9.23;100.00;94775.19;5112131;28;20514;-59
2023/03/05 04:13:36;;;;;;;3.60;0.63;;;;;;;8.88;100.00;94731.22;5111578;28;20436;-59
2023/03/05 04:16:05;;;;;;;0.53;0.40;;;;;;;9.44;100.00;94752.84;5111725;28;20471;-59
2023/03/05 04:18:34;;;;;;;8.43;0.63;;;;;;;9.43;100.00;94757.34;5111861;28;20868;-59
2023/03/05 04:21:04;;;;;;;0.90;0.90;;;;;;;9.75;100.00;94772.72;5110089;28;20506;-59
2023/03/05 04:23:32;;;;;;;0.37;0.23;;;;;;;9.83;100.00;94772.13;5110732;28;20430;-59
2023/03/05 04:26:01;;;;;;;0.60;0.60;;;;;;;9.43;100.00;94754.72;5111880;28;20507;-59
2023/03/05 04:28:29;;;;;;;0.37;0.27;;;;;;;9.34;100.00;94708.75;5111576;28;20431;-59
2023/03/05 04:30:57;;;;;;;0.60;0.60;;;;;;;9.63;100.00;94729.94;5112267;28;20458;-59
2023/03/05 04:33:26;;;;;;;0.40;0.30;;;;;;;9.50;100.00;94767.63;5111536;28;20420;-60
2023/03/05 04:35:54;;;;;;;0.40;0.20;;;;;;;9.64;100.00;94747.38;5111292;28;20467;-59
2023/03/05 04:38:24;;;;;;;0.40;0.37;;;;;;;8.58;100.00;94602.75;5110362;28;20439;-59
2023/03/05 04:40:52;;;;;;;0.40;0.30;;;;;;;9.44;100.00;94737.75;5110976;28;20420;-60
2023/03/05 04:43:21;;;;;;;0.53;0.40;;;;;;;9.33;100.00;94727.53;5111886;28;20431;-59
2023/03/05 04:45:49;;;;;;;1.70;1.70;;;;;;;8.60;100.00;94615.69;5111790;28;20965;-59
2023/03/05 04:48:17;;;;;;;0.40;0.30;;;;;;;8.83;100.00;94700.34;5111786;28;20940;-58
2023/03/05 04:50:46;;;;;;;0.60;0.40;;;;;;;8.53;100.00;94608.06;5110854;28;20915;-59
2023/03/05 04:53:14;;;;;;;0.33;0.27;;;;;;;9.36;100.00;94717.19;5110401;28;20533;-59
2023/03/05 04:55:44;;;;;;;0.73;0.37;;;;;;;9.84;100.00;94747.22;5111052;28;20424;-59
2023/03/05 04:58:12;;;;;;;0.83;0.83;;;;;;;10.04;100.00;94773.50;5112240;28;20961;-59
2023/03/05 05:00:41;;;;;;;1.43;0.30;;;;;;;9.73;100.00;94772.22;5112026;28;20415;-59
2023/03/05 05:03:09;;;;;;;0.30;0.20;;;;;;;9.34;100.00;94706.09;5111799;28;20939;-59
2023/03/05 05:05:38;;;;;;;2.00;0.50;;;;;;;9.38;100.00;94704.50;5110890;28;20442;-59
2023/03/05 05:08:06;;;;;;;0.40;0.20;;;;;;;9.84;100.00;94773.69;5110867;28;20878;-59
2023/03/05 05:10:37;;;;;;;0.47;0.30;;;;;;;9.60;100.00;94725.22;5110095;28;20428;-59
2023/03/05 05:13:07;;;;;;;0.50;0.20;;;;;;;9.37;100.00;94789.38;5110434;28;20513;-59
2023/03/05 05:15:35;;;;;;;0.40;0.40;;;;;;;9.03;100.00;94754.97;5111011;28;20505;-59
2023/03/05 05:18:04;;;;;;;0.60;0.43;;;;;;;8.78;100.00;94740.00;5111576;28;20507;-58
2023/03/05 05:20:32;;;;;;;0.50;0.40;;;;;;;9.10;100.00;94778.44;5111249;28;20558;-59
2023/03/05 05:23:03;;;;;;;1.47;1.37;;;;;;;9.10;100.00;94750.16;5111106;28;20438;-58
2023/03/05 05:25:31;;;;;;;0.30;0.20;;;;;;;8.96;100.00;94730.66;5110219;28;20471;-58
2023/03/05 05:28:00;;;;;;;0.40;0.30;;;;;;;9.09;100.00;94737.19;5110331;28;20511;-58
2023/03/05 05:30:29;;;;;;;0.40;0.30;;;;;;;8.25;100.00;94604.22;5111060;28;20489;-58
2023/03/05 05:32:58;;;;;;;0.70;0.60;;;;;;;9.28;100.00;94761.94;5111526;28;20435;-58
2023/03/05 05:35:26;;;;;;;0.87;0.67;;;;;;;9.22;100.00;94741.88;5111272;28;21026;-59
2023/03/05 05:37:55;;;;;;;0.67;0.67;;;;;;;9.57;100.00;94781.31;5111277;28;20999;-59
2023/03/05 05:40:23;;;;;;;1.57;1.47;;;;;;;9.55;100.00;94780.81;5110346;28;20419;-59
2023/03/05 05:42:51;;;;;;;0.30;0.30;;;;;;;9.28;100.00;94731.00;5111414;28;20467;-59
2023/03/05 05:45:20;;;;;;;0.30;0.30;;;;;;;5.33;100.00;94135.59;5109983;28;20945;-59
2023/03/05 05:47:49;;;;;;;1.60;0.50;;;;;;;9.00;100.00;94720.34;5111341;28;20785;-59
2023/03/05 05:50:18;;;;;;;0.77;0.77;;;;;;;9.70;100.00;94788.63;5111109;28;20518;-59
2023/03/05 05:52:47;;;;;;;0.50;0.50;;;;;;;9.79;100.00;94796.78;5111912;28;20431;-59
2023/03/05 05:55:15;;;;;;;1.33;1.23;;;;;;;9.81;100.00;94797.28;5114824;28;20516;-58
2023/03/05 05:57:44;;;;;;;0.40;0.40;;;;;;;9.78;100.00;94790.69;5114402;28;20818;-58
2023/03/05 06:00:15;;;;;;;0.53;0.53;;;;;;;9.64;100.00;94747.38;5114539;28;20447;-58
2023/03/05 06:02:44;;;;;;;1.80;1.17;;;;;;;9.90;100.00;94767.28;5114488;28;20441;-58
2023/03/05 06:05:14;;;;;;;0.77;0.60;;;;;;;10.22;100.00;94797.78;5113941;28;20423;-57
2023/03/05 06:07:43;;;;;;;0.40;0.40;;;;;;;10.44;100.00;94803.38;5114216;28;20530;-57
2023/03/05 06:10:12;;;;;;;5.23;0.57;;;;;;;10.53;98.99;94804.34;5114431;28;20799;-57
2023/03/05 06:12:40;;;;;;;0.87;0.87;;;;;;;10.71;98.77;94796.47;5114535;28;20736;-58
2023/03/05 06:15:09;;;;;;;1.47;0.97;;;;;;;10.19;100.00;94802.53;5113692;28;20428;-57
2023/03/05 06:17:38;;;;;;;0.50;0.50;;;;;;;9.78;100.00;94805.78;5114520;28;20528;-57
2023/03/05 06:20:07;;;;;;;0.37;0.30;;;;;;;9.86;100.00;94811.28;5114237;28;20482;-57
2023/03/05 06:22:38;;;;;;;0.70;0.70;;;;;;;10.28;100.00;94804.59;5114076;28;20472;-57
2023/03/05 06:25:08;;;;;;;0.37;0.30;;;;;;;10.20;100.00;94806.78;5114163;28;20852;-56
2023/03/05 06:27:37;;;;;;;0.40;0.40;;;;;;;10.17;100.00;94812.63;5114379;28;20428;-56
2023/03/05 06:30:07;;;;;;;0.47;0.47;;;;;;;10.19;100.00;94813.13;5114007;28;20428;-56
2023/03/05 06:32:35;;;;;;;0.50;0.50;;;;;;;10.37;100.00;94808.22;5113556;28;20936;-57
2023/03/05 06:35:05;;;;;;;0.43;0.43;;;;;;;10.72;100.00;94810.50;5113824;28;20511;-56
2023/03/05 06:37:34;;;;;;;0.50;0.50;;;;;;;10.73;100.00;94806.75;5113810;28;20590;-56
2023/03/05 06:40:04;;;;;;;0.50;0.50;;;;;;;10.54;100.00;94747.63;5114007;28;20932;-56
2023/03/05 06:42:33;;;;;;;0.60;0.60;;;;;;;10.65;100.00;94807.41;5113713;28;20458;-56
2023/03/05 06:45:02;;;;;;;0.70;0.70;;;;;;;10.31;100.00;94743.13;5113593;28;20470;-57
2023/03/05 06:47:31;;;;;;;2.20;0.53;;;;;;;10.57;100.00;94786.81;5113453;28;20456;-57
2023/03/05 06:50:00;;;;;;;2.90;1.03;;;;;;;10.85;100.00;94809.84;5113366;28;20432;-57
2023/03/05 06:52:28;;;;;;;0.60;0.57;;;;;;;10.48;100.00;94797.22;5113742;28;20807;-57
2023/03/05 06:54:57;;;;;;;0.90;0.90;;;;;;;10.04;100.00;94762.16;5113545;28;20498;-58
2023/03/05 06:57:26;;;;;;;1.23;1.13;;;;;;;10.79;100.00;94806.44;5113424;28;20503;-58
2023/03/05 06:59:55;;;;;;;0.60;0.60;;;;;;;11.28;100.00;94808.75;5113512;28;20428;-58
2023/03/05 07:02:23;;;;;;;0.57;0.57;;;;;;;11.73;94.53;94764.09;5113375;28;20455;-58
2023/03/05 07:04:51;;;;;;;0.50;0.40;;;;;;;12.32;85.09;94769.47;5111983;28;20514;-62
2023/03/05 07:07:20;;;;;;;1.73;1.70;;;;;;;12.94;83.23;94793.84;5112587;28;20553;-59
2023/03/05 07:09:49;;;;;;;0.87;0.87;;;;;;;13.99;78.50;94783.56;5113270;28;20428;-60
2023/03/05 07:12:17;;;;;;;0.60;0.50;;;;;;;14.42;75.09;94775.84;5113174;28;20952;-60
2023/03/05 07:14:47;;;;;;;0.60;0.60;;;;;;;15.11;72.49;94778.81;5113274;28;21169;-58
2023/03/05 07:17:15;;;;;;;0.40;0.37;;;;;;;15.45;70.93;94773.56;5112873;28;20566;-58
2023/03/05 07:19:44;;;;;;;10.43;1.40;;;;;;;16.12;65.51;94763.19;5112963;28;20421;-58
2023/03/05 07:22:12;;;;;;;1.40;1.30;;;;;;;15.85;67.43;94758.97;5112945;28;20432;-58
2023/03/05 07:24:40;;;;;;;0.50;0.40;;;;;;;16.01;67.44;94748.59;5113142;28;20416;-59
2023/03/05 07:27:09;;;;;;;0.80;0.77;;;;;;;16.44;66.33;94745.81;5113318;28;20428;-58
2023/03/05 07:29:37;;;;;;;3.63;0.73;;;;;;;16.41;63.86;94739.22;5112031;28;20424;-59
2023/03/05 07:32:07;;;;;;;0.60;0.60;;;;;;;16.87;63.97;94695.63;5112835;28;20481;-61
2023/03/05 07:34:38;;;;;;;0.50;0.43;;;;;;;17.05;59.31;94728.44;5112825;28;20535;-64
2023/03/05 07:37:06;;;;;;;0.90;0.77;;;;;;;17.86;59.87;94728.06;5112824;28;20446;-64
2023/03/05 07:39:34;;;;;;;0.40;0.40;;;;;;;17.11;59.31;94725.25;5112927;28;20439;-71
2023/03/05 07:42:03;;;;;;;1.43;1.27;;;;;;;16.57;61.94;94723.44;5112527;28;20426;-82
2023/03/05 07:44:31;;;;;;;0.53;0.50;;;;;;;17.79;59.13;94720.53;5112492;28;20416;-74
2023/03/05 07:47:00;;;;;;;1.63;1.60;;;;;;;18.53;56.39;94711.59;5111082;28;20420;-72
2023/03/05 07:49:29;;;;;;;0.70;0.70;;;;;;;18.25;55.32;94711.41;5112808;28;20495;-75
2023/03/05 07:51:58;;;;;;;2.20;1.03;;;;;;;17.40;57.65;94712.94;5113652;28;20516;-76
2023/03/05 07:54:26;;;;;;;0.60;0.53;;;;;;;17.58;55.59;94664.25;5111706;28;20435;-75
2023/03/05 07:56:55;;;;;;;0.67;0.47;;;;;;;18.31;55.14;94707.41;5110488;28;20420;-71
2023/03/05 07:59:23;;;;;;;0.47;0.40;;;;;;;18.35;54.75;94702.94;5110604;28;21049;-73
2023/03/05 08:01:51;;;;;;;0.40;0.30;;;;;;;18.41;55.06;94704.31;5111784;28;20967;-74
2023/03/05 08:04:20;;;;;;;0.40;0.40;;;;;;;16.30;58.01;94707.78;5111924;28;20793;-75
2023/03/05 08:06:50;;;;;;;0.40;0.37;;;;;;;16.29;58.16;94706.22;5112459;28;20416;-76
2023/03/05 08:09:19;;;;;;;0.83;0.83;;;;;;;16.97;56.51;94697.16;5112547;28;20460;-77
2023/03/05 08:11:47;;;;;;;2.50;0.30;;;;;;;17.21;54.67;94689.25;5112907;28;20858;-77
2023/03/05 08:14:15;;;;;;;0.53;0.50;;;;;;;17.77;54.37;94691.38;5112526;28;20495;-76
2023/03/05 08:16:45;;;;;;;0.40;0.30;;;;;;;18.49;49.50;94682.00;5112192;28;20424;-70
2023/03/05 08:19:15;;;;;;;0.60;0.60;;;;;;;17.52;51.49;94676.31;5112592;28;20529;-77
2023/03/05 08:21:43;;;;;;;0.30;0.20;;;;;;;17.06;53.09;94644.31;5112259;28;20481;-72
2023/03/05 08:24:14;;;;;;;0.60;0.33;;;;;;;17.37;50.33;94676.06;5112189;28;20419;-72
2023/03/05 08:26:43;;;;;;;2.50;0.30;;;;;;;16.88;52.98;94665.06;5112446;28;20420;-72
2023/03/05 08:29:11;;;;;;;0.50;0.40;;;;;;;17.03;52.96;94669.84;5112416;28;20432;-70
2023/03/05 08:31:39;;;;;;;2.93;0.30;;;;;;;16.95;51.05;94622.50;5112166;28;20420;-72
2023/03/05 08:34:08;;;;;;;0.30;0.20;;;;;;;17.99;49.83;94659.94;5112092;28;20419;-72
2023/03/05 08:36:36;;;;;;;1.43;1.33;;;;;;;17.93;50.22;94656.69;5111649;28;20434;-72
2023/03/05 08:39:05;;;;;;;0.70;0.60;;;;;;;16.66;52.11;94617.19;5111130;28;20558;-72
2023/03/05 08:41:35;;;;;;;0.50;0.30;;;;;;;17.18;50.74;94657.78;5111554;28;20459;-68
2023/03/05 08:44:03;;;;;;;0.83;0.43;;;;;;;16.80;51.86;94662.44;5111191;28;20416;-66
2023/03/05 08:46:32;;;;;;;0.50;0.30;;;;;;;16.92;50.80;94655.28;5111702;28;20424;-65
2023/03/05 08:49:00;;;;;;;0.40;0.40;;;;;;;17.10;49.42;94621.16;5111780;28;20438;-65
2023/03/05 08:51:29;;;;;;;0.50;0.30;;;;;;;18.37;47.52;94645.16;5111707;28;20872;-68
2023/03/05 08:54:00;;;;;;;0.40;0.40;;;;;;;18.99;46.37;94639.47;5111878;28;20439;-72
2023/03/05 08:56:30;;;;;;;1.13;1.13;;;;;;;18.81;45.84;94632.78;5111922;28;20459;-73
2023/03/05 08:59:00;;;;;;;0.67;0.67;;;;;;;19.53;44.47;94636.47;5112264;28;20890;-73
2023/03/05 09:01:29;;;;;;;0.47;0.30;;;;;;;18.04;46.00;94641.75;5111985;28;20450;-70
2023/03/05 09:03:58;;;;;;;0.67;0.33;;;;;;;18.21;46.93;94630.84;5112020;28;20431;-67
2023/03/05 09:06:27;;;;;;;0.50;0.50;;;;;;;17.66;45.93;94531.31;5112018;28;20424;-67
2023/03/05 09:08:55;;;;;;;0.70;0.50;;;;;;;18.17;46.94;94624.56;5111580;28;20463;-66
2023/03/05 09:11:26;;;;;;;0.40;0.30;;;;;;;18.04;48.38;94624.88;5111516;28;20458;-67
2023/03/05 09:13:55;;;;;;;0.40;0.20;;;;;;;17.04;47.53;94631.28;5114424;28;20416;-67
2023/03/05 09:16:24;;;;;;;0.70;0.40;;;;;;;18.59;46.38;94624.41;5112570;28;20424;-77
2023/03/05 09:18:53;;;;;;;0.40;0.30;;;;;;;18.45;45.30;94619.34;5112146;28;20459;-70
2023/03/05 09:21:22;;;;;;;0.30;0.20;;;;;;;19.40;43.94;94611.53;5111467;28;20557;-64
2023/03/05 09:23:50;;;;;;;0.40;0.30;;;;;;;19.67;42.60;94599.22;5111748;28;20499;-62
2023/03/05 09:26:19;;;;;;;0.40;0.30;;;;;;;19.21;41.76;94597.09;5111500;28;20432;-61
2023/03/05 09:28:48;;;;;;;0.40;0.20;;;;;;;19.68;40.73;94556.97;5114865;28;20468;-61
2023/03/05 09:31:17;;;;;;;0.40;0.30;;;;;;;20.67;39.13;94587.16;5114878;28;20442;-60
2023/03/05 09:33:48;;;;;;;0.30;0.30;;;;;;;19.75;38.70;94594.81;5115379;28;20778;-63
2023/03/05 09:36:19;;;;;;;0.40;0.30;;;;;;;18.23;42.19;94440.06;5115378;28;20862;-64
2023/03/05 09:38:48;;;;;;;0.70;0.40;;;;;;;17.93;42.18;94592.34;5114693;28;20475;-64
2023/03/05 09:41:24;;;;;;;0.40;0.30;;;;;;;18.67;41.40;94594.00;5115283;28;20427;-61
2023/03/05 09:44:02;;;;;;;0.40;0.30;;;;;;;17.97;43.02;94600.50;5115486;28;20431;-61
2023/03/05 09:46:43;;;;;;;0.50;0.40;;;;;;;16.06;45.01;94534.59;5114611;28;20458;-62
2023/03/05 09:49:18;;;;;;;1.63;0.40;;;;;;;16.57;45.40;94562.94;5114706;28;20551;-65
2023/03/05 09:51:52;;;;;;;0.50;0.50;;;;;;;16.45;45.07;94566.28;5114621;28;20429;-69
2023/03/05 09:54:24;;;;;;;1.17;0.30;;;;;;;16.37;45.37;94604.56;5114670;28;20984;-72
2023/03/05 09:56:56;;;;;;;0.40;0.20;;;;;;;16.00;45.74;94578.63;5114809;28;20431;-73
2023/03/05 09:59:30;;;;;;;0.40;0.30;;;;;;;15.02;47.94;94559.97;5114820;28;21003;-70
2023/03/05 10:02:03;;;;;;;0.50;0.43;;;;;;;14.79;47.60;94549.75;5114962;28;20477;-67
2023/03/05 10:04:44;;;;;;;0.50;0.40;;;;;;;15.12;48.16;94586.34;5114866;28;20431;-64
2023/03/05 10:07:18;;;;;;;4.73;0.40;;;;;;;15.13;48.54;94579.88;5114950;28;20835;-64
2023/03/05 10:09:51;;;;;;;0.40;0.30;;;;;;;13.50;52.95;94528.09;5114889;28;20456;-63
2023/03/05 10:12:26;;;;;;;0.47;0.33;;;;;;;14.37;51.93;94586.72;5114469;28;20920;-67
2023/03/05 10:14:56;;;;;;;0.40;0.30;;;;;;;14.68;50.49;94565.28;5114920;28;20494;-66
2023/03/05 10:17:57;;;;;;;0.40;0.30;;;;;;;15.26;51.64;94567.47;5114456;28;20452;-65
2023/03/05 10:20:53;;;;;;;0.83;0.30;;;;;;;14.28;54.73;94569.88;5114050;28;21041;-64
2023/03/05 10:23:38;;;;;;;0.40;0.30;;;;;;;14.54;55.19;94559.31;5111276;28;20440;-63
2023/03/05 10:26:25;;;;;;;0.40;0.30;;;;;;;14.77;55.18;94560.75;5114161;28;20432;-64
2023/03/05 10:29:03;;;;;;;0.50;0.40;;;;;;;14.61;54.15;94539.09;5114146;28;20444;-64
2023/03/05 10:31:44;;;;;;;0.40;0.30;;;;;;;14.05;55.38;94548.97;5114229;28;20416;-66
2023/03/05 10:34:43;;;;;;;0.43;0.43;;;;;;;13.62;55.93;94546.94;5114053;28;20471;-66
2023/03/05 10:37:33;;;;;;;0.60;0.60;;;;;;;14.50;50.85;94529.00;5108185;28;20443;-67
2023/03/05 10:40:11;;;;;;;0.50;0.43;;;;;;;14.60;55.28;94531.38;5113436;28;20463;-67
2023/03/05 10:42:49;;;;;;;0.50;0.50;;;;;;;15.01;54.95;94518.34;5114151;28;20432;-66
2023/03/05 10:45:21;;;;;;;0.37;0.27;;;;;;;14.52;55.95;94500.94;5114128;28;20420;-63
2023/03/05 10:47:53;;;;;;;11.43;0.93;;;;;;;14.90;53.01;94466.41;5114187;28;20436;-64
2023/03/05 10:50:23;;;;;;;0.40;0.37;;;;;;;15.02;51.80;94468.44;5113837;28;20422;-64
2023/03/05 10:53:06;;;;;;;0.50;0.30;;;;;;;15.19;50.88;94498.56;5114298;28;20432;-65
2023/03/05 10:55:34;;;;;;;0.30;0.20;;;;;;;14.01;53.25;94493.63;5114275;28;20480;-65
2023/03/05 10:58:11;;;;;;;0.80;0.80;;;;;;;14.09;52.54;94483.31;5113959;28;20426;-65
2023/03/05 11:00:40;;;;;;;0.33;0.27;;;;;;;14.70;53.39;94483.06;5114027;28;20566;-65
2023/03/05 11:03:10;;;;;;;0.40;0.30;;;;;;;13.99;53.93;94484.38;5113692;28;20420;-66
2023/03/05 11:05:50;;;;;;;0.50;0.40;;;;;;;14.81;52.88;94464.84;5113539;28;20427;-65
2023/03/05 11:08:29;;;;;;;0.30;0.30;;;;;;;16.15;51.07;94435.63;5113665;28;20875;-65
2023/03/05 11:11:10;;;;;;;0.40;0.30;;;;;;;17.39;49.77;94451.53;5113684;28;20912;-60
2023/03/05 11:13:46;;;;;;;0.40;0.40;;;;;;;17.58;48.62;94441.09;5113438;28;20422;-60
2023/03/05 11:16:18;;;;;;;0.93;0.87;;;;;;;16.82;47.93;94441.56;5113844;28;20515;-60
2023/03/05 11:18:48;;;;;;;1.20;1.20;;;;;;;16.82;48.71;94430.88;5113790;28;20412;-62
2023/03/05 11:21:26;;;;;;;2.60;1.33;;;;;;;16.63;49.91;94429.75;5113125;28;20574;-62
2023/03/05 11:24:12;;;;;;;0.83;0.83;;;;;;;16.74;49.02;94429.03;5113588;28;20432;-64
2023/03/05 11:26:49;;;;;;;0.90;0.90;;;;;;;15.83;48.44;94411.16;5113126;28;20428;-66
2023/03/05 11:29:23;;;;;;;2.40;0.47;;;;;;;16.08;50.28;94411.28;5116225;28;20461;-64
2023/03/05 11:31:52;;;;;;;3.37;0.77;;;;;;;15.56;50.28;94408.16;5114497;28;20428;-66
2023/03/05 11:34:34;;;;;;;0.50;0.50;;;;;;;15.30;49.36;94303.34;5113633;28;20455;-70
2023/03/05 11:37:05;;;;;;;1.33;1.33;;;;;;;15.76;50.97;94397.50;5113837;28;20917;-69
2023/03/05 11:39:37;;;;;;;0.40;0.30;;;;;;;15.79;50.44;94367.47;5113342;28;20468;-68
2023/03/05 11:42:11;;;;;;;0.43;0.43;;;;;;;16.40;49.09;94395.31;5113210;28;20424;-69
2023/03/05 11:44:47;;;;;;;1.30;1.20;;;;;;;15.28;49.01;94389.06;5113066;28;20427;-68
2023/03/05 11:47:26;;;;;;;0.40;0.30;;;;;;;15.20;49.45;94382.66;5113178;28;20796;-68